createdAt,value
2024-01-03T00:01:36.963Z,4.30
2024-01-03T00:04:12.930Z,4.35
2024-01-03T00:06:41.912Z,4.93
2024-01-03T00:09:15.995Z,4.68
2024-01-03T00:11:47.213Z,4.95
2024-01-03T00:14:33.189Z,5.97
2024-01-03T00:17:11.552Z,5.53
2024-01-03T00:19:45.181Z,4.13
2024-01-03T00:22:26.110Z,6.20
2024-01-03T00:25:03.931Z,4.80
2024-01-03T00:27:38.970Z,5.18
2024-01-03T00:31:14.411Z,4.90
2024-01-03T00:33:52.116Z,5.13
2024-01-03T00:36:24.269Z,5.25
2024-01-03T00:38:58.513Z,6.25
2024-01-03T00:41:27.480Z,5.90
2024-01-03T00:44:00.701Z,5.20
2024-01-03T00:46:36.580Z,7.00
2024-01-03T00:49:07.631Z,5.55
2024-01-03T00:51:36.943Z,5.78
2024-01-03T00:54:06.973Z,6.18
2024-01-03T00:56:39.241Z,5.60
2024-01-03T00:59:09.421Z,6.00
2024-01-03T01:01:38.786Z,5.60
2024-01-03T01:04:09.551Z,5.85
2024-01-03T01:06:46.174Z,6.07
2024-01-03T01:09:24.779Z,6.28
2024-01-03T01:11:57.166Z,5.68
2024-01-03T01:14:31.471Z,5.25
2024-01-03T01:17:21.950Z,5.78
2024-01-03T01:19:52.717Z,4.78
2024-01-03T01:22:25.089Z,5.68
2024-01-03T01:24:58.252Z,5.38
2024-01-03T01:27:28.379Z,5.05
2024-01-03T01:30:28.789Z,4.80
2024-01-03T01:35:55.528Z,5.10
2024-01-03T01:38:27.871Z,5.05
2024-01-03T01:41:01.185Z,5.68
2024-01-03T01:43:36.621Z,5.60
2024-01-03T01:46:16.731Z,5.22
2024-01-03T01:49:00.757Z,5.82
2024-01-03T01:54:47.745Z,4.20
2024-01-03T01:57:20.055Z,4.82
2024-01-03T02:00:05.919Z,5.20
2024-01-03T02:02:42.655Z,6.13
2024-01-03T02:05:40.823Z,5.43
2024-01-03T02:08:12.825Z,5.38
2024-01-03T02:10:42.988Z,6.72
2024-01-03T02:13:15.901Z,6.30
2024-01-03T02:15:48.593Z,6.55
2024-01-03T02:18:21.397Z,6.00
2024-01-03T02:20:51.858Z,5.95
2024-01-03T02:23:54.435Z,6.57
2024-01-03T02:26:32.390Z,6.65
2024-01-03T02:29:01.893Z,6.30
2024-01-03T02:31:32.771Z,6.03
2024-01-03T02:34:26.614Z,4.55
2024-01-03T02:39:56.360Z,6.07
2024-01-03T02:42:26.560Z,6.25
2024-01-03T02:44:56.401Z,6.10
2024-01-03T02:47:25.762Z,5.43
2024-01-03T02:50:00.520Z,6.43
2024-01-03T02:52:40.133Z,6.03
2024-01-03T02:55:13.591Z,6.40
2024-01-03T03:03:46.975Z,6.18
2024-01-03T03:06:19.772Z,6.65
2024-01-03T03:09:12.877Z,6.43
2024-01-03T03:11:49.973Z,6.88
2024-01-03T03:14:32.200Z,6.43
2024-01-03T03:17:18.325Z,7.10
2024-01-03T03:19:48.267Z,7.00
2024-01-03T03:22:24.147Z,7.45
2024-01-03T03:24:53.405Z,6.90
2024-01-03T03:27:22.868Z,7.43
2024-01-03T03:29:53.480Z,7.38
2024-01-03T03:32:24.044Z,7.63
2024-01-03T03:34:53.547Z,6.95
2024-01-03T03:37:23.903Z,6.68
2024-01-03T03:40:02.933Z,5.95
2024-01-03T03:42:43.900Z,7.13
2024-01-03T03:45:22.236Z,6.28
2024-01-03T03:50:41.568Z,6.70
2024-01-03T03:53:12.255Z,6.35
2024-01-03T03:56:00.210Z,7.68
2024-01-03T03:58:33.679Z,7.43
2024-01-03T04:01:08.320Z,7.68
2024-01-03T04:03:45.978Z,7.15
2024-01-03T04:06:19.866Z,7.18
2024-01-03T04:08:53.182Z,6.75
2024-01-03T04:11:29.259Z,7.30
2024-01-03T04:14:00.229Z,6.70
2024-01-03T04:16:37.031Z,7.65
2024-01-03T04:19:06.849Z,7.68
2024-01-03T04:21:38.244Z,6.18
2024-01-03T04:24:25.314Z,5.80
2024-01-03T04:26:57.255Z,6.50
2024-01-03T04:30:06.066Z,6.75
2024-01-03T04:32:54.722Z,5.57
2024-01-03T04:35:49.861Z,6.07
2024-01-03T04:38:24.041Z,6.18
2024-01-03T04:40:56.668Z,5.90
2024-01-03T04:43:33.186Z,5.90
2024-01-03T04:46:31.729Z,4.85
2024-01-03T04:49:12.315Z,4.63
2024-01-03T04:51:45.654Z,4.55
2024-01-03T04:56:58.446Z,4.55
2024-01-03T04:59:27.887Z,4.65
2024-01-03T05:02:00.221Z,5.10
2024-01-03T05:04:31.360Z,4.82
2024-01-03T05:07:03.183Z,3.00
2024-01-03T05:09:40.176Z,3.75
2024-01-03T05:12:14.143Z,3.35
2024-01-03T05:17:45.451Z,3.75
2024-01-03T05:20:17.646Z,3.20
2024-01-03T05:26:40.983Z,3.13
2024-01-03T05:32:18.180Z,2.53
2024-01-03T05:34:48.469Z,2.22
2024-01-03T05:37:16.849Z,2.72
2024-01-03T05:39:46.353Z,3.13
2024-01-03T05:42:29.857Z,2.45
2024-01-03T05:45:02.470Z,2.30
2024-01-03T05:47:36.939Z,2.70
2024-01-03T05:53:07.274Z,2.42
2024-01-03T05:55:36.762Z,2.80
2024-01-03T05:58:06.305Z,2.88
2024-01-03T06:00:35.413Z,2.38
2024-01-03T06:03:05.031Z,1.90
2024-01-03T06:05:42.125Z,2.58
2024-01-03T06:08:12.654Z,1.98
2024-01-03T06:10:48.358Z,2.13
2024-01-03T06:13:21.285Z,2.20
2024-01-03T06:15:50.515Z,1.70
2024-01-03T06:21:22.324Z,1.73
2024-01-03T06:23:55.648Z,1.42
2024-01-03T06:26:35.646Z,1.10
2024-01-03T06:29:11.161Z,1.17
2024-01-03T06:31:50.794Z,1.67
2024-01-03T06:34:21.027Z,1.25
2024-01-03T06:36:58.694Z,1.25
2024-01-03T06:39:29.642Z,1.40
2024-01-03T06:42:01.751Z,0.88
2024-01-03T06:44:41.828Z,0.98
2024-01-03T06:47:19.185Z,0.90
2024-01-03T06:49:50.179Z,1.00
2024-01-03T06:52:21.541Z,0.70
2024-01-03T06:54:51.836Z,1.10
2024-01-03T06:57:20.491Z,1.20
2024-01-03T06:59:49.522Z,0.80
2024-01-03T07:02:18.434Z,1.35
2024-01-03T07:09:19.980Z,0.85
2024-01-03T07:12:42.333Z,1.55
2024-01-03T07:44:45.392Z,2.10
2024-01-03T08:32:07.366Z,3.25
2024-01-03T08:35:37.289Z,3.17
2024-01-03T08:38:47.151Z,3.22
2024-01-03T08:41:18.566Z,4.03
2024-01-03T08:44:09.962Z,3.80
2024-01-03T08:46:52.132Z,3.40
2024-01-03T08:49:42.076Z,3.42
2024-01-03T08:52:11.952Z,4.70
2024-01-03T08:54:59.841Z,4.18
2024-01-03T08:57:33.606Z,4.40
2024-01-03T09:00:23.181Z,4.43
2024-01-03T09:03:19.778Z,4.50
2024-01-03T09:12:53.440Z,4.13
2024-01-03T09:15:47.738Z,5.10
2024-01-03T09:19:06.830Z,3.80
2024-01-03T09:22:01.965Z,3.78
2024-01-03T09:30:35.627Z,4.15
2024-01-03T10:16:15.317Z,4.53
2024-01-03T10:18:46.381Z,4.75
2024-01-03T10:21:34.193Z,5.10
2024-01-03T10:24:16.655Z,4.88
2024-01-03T10:27:30.410Z,5.22
2024-01-03T10:50:51.277Z,5.53
2024-01-03T10:53:26.891Z,5.57
2024-01-03T10:55:57.643Z,5.43
2024-01-03T10:58:32.272Z,6.05
2024-01-03T11:01:14.990Z,6.78
2024-01-03T11:04:11.121Z,5.07
2024-01-03T11:06:49.383Z,6.78
2024-01-03T11:09:32.352Z,5.55
2024-01-03T11:13:20.786Z,5.32
2024-01-03T11:28:55.221Z,5.75
2024-01-03T12:20:13.826Z,3.80
2024-01-03T12:23:56.042Z,4.45
2024-01-03T12:27:29.612Z,3.83
2024-01-03T12:34:17.705Z,3.53
2024-01-03T12:37:26.675Z,4.20
2024-01-03T12:40:30.607Z,3.53
2024-01-03T12:43:17.444Z,3.33
2024-01-03T13:23:33.189Z,4.22
2024-01-03T13:26:08.513Z,3.03
2024-01-03T13:28:38.810Z,2.58
2024-01-03T13:31:42.229Z,1.83
2024-01-03T13:34:10.964Z,1.77
2024-01-03T13:36:39.876Z,1.88
2024-01-03T13:39:11.200Z,1.65
2024-01-03T13:41:39.893Z,1.27
2024-01-03T13:44:11.164Z,1.92
2024-01-03T13:46:39.802Z,2.15
2024-01-03T13:49:09.955Z,2.90
2024-01-03T13:51:39.004Z,2.30
2024-01-03T13:54:09.260Z,2.15
2024-01-03T13:56:37.844Z,2.28
2024-01-03T13:59:12.818Z,2.22
2024-01-03T14:01:41.676Z,1.80
2024-01-03T14:04:10.794Z,2.50
2024-01-03T14:06:48.611Z,2.88
2024-01-03T14:09:18.497Z,3.90
2024-01-03T14:11:47.431Z,3.03
2024-01-03T14:15:02.481Z,2.35
2024-01-03T14:40:57.815Z,1.38
2024-01-03T14:43:41.403Z,1.60
2024-01-03T14:46:34.123Z,1.73
2024-01-03T15:30:13.033Z,2.45
2024-01-03T15:32:42.281Z,2.10
2024-01-03T15:35:14.381Z,2.33
2024-01-03T15:40:47.854Z,1.80
2024-01-03T15:43:17.011Z,1.77
2024-01-03T15:45:55.589Z,2.80
2024-01-03T15:48:24.416Z,3.15
2024-01-03T15:50:53.873Z,4.10
2024-01-03T15:53:23.100Z,2.15
2024-01-03T15:55:52.326Z,2.00
2024-01-03T15:58:23.929Z,2.15
2024-01-03T16:00:55.544Z,1.83
2024-01-03T16:03:24.896Z,2.03
2024-01-03T16:05:56.950Z,1.80
2024-01-03T16:08:26.200Z,1.70
2024-01-03T16:11:41.132Z,1.73
2024-01-03T16:14:12.947Z,2.67
2024-01-03T16:16:43.974Z,2.63
2024-01-03T16:19:21.375Z,2.13
2024-01-03T16:21:53.118Z,2.28
2024-01-03T16:24:23.372Z,2.35
2024-01-03T16:26:57.034Z,1.88
2024-01-03T16:29:27.493Z,2.00
2024-01-03T16:31:59.148Z,2.53
2024-01-03T16:34:35.823Z,2.83
2024-01-03T16:37:08.850Z,2.55
2024-01-03T16:39:38.172Z,2.80
2024-01-03T16:42:13.781Z,3.05
2024-01-03T16:44:48.793Z,2.65
2024-01-03T16:47:20.944Z,2.10
2024-01-03T16:49:56.694Z,2.42
2024-01-03T16:52:29.982Z,3.33
2024-01-03T16:55:03.019Z,2.30
2024-01-03T16:57:42.646Z,2.60
2024-01-03T17:00:13.151Z,2.45
2024-01-03T17:02:43.587Z,2.33
2024-01-03T17:05:12.959Z,2.53
2024-01-03T17:07:44.650Z,2.40
2024-01-03T17:10:13.486Z,2.85
2024-01-03T17:12:43.550Z,2.63
2024-01-03T17:15:12.210Z,3.03
2024-01-03T17:17:43.088Z,2.53
2024-01-03T17:20:13.181Z,2.70
2024-01-03T17:22:44.624Z,2.83
2024-01-03T17:25:14.210Z,2.25
2024-01-03T17:27:42.783Z,3.28
2024-01-03T17:30:15.994Z,3.03
2024-01-03T17:32:46.912Z,2.97
2024-01-03T17:35:34.938Z,3.38
2024-01-03T17:38:04.916Z,3.17
2024-01-03T17:40:33.372Z,3.08
2024-01-03T17:43:06.306Z,3.13
2024-01-03T17:45:35.834Z,2.50
2024-01-03T17:48:06.706Z,2.85
2024-01-03T17:50:39.158Z,3.25
2024-01-03T17:53:08.002Z,2.33
2024-01-03T17:55:39.941Z,2.00
2024-01-03T17:58:08.750Z,1.40
2024-01-03T18:00:41.359Z,1.35
2024-01-03T18:03:11.947Z,2.00
2024-01-03T18:05:42.038Z,1.70
2024-01-03T18:08:15.292Z,1.45
2024-01-03T18:10:43.930Z,1.50
2024-01-03T18:13:12.475Z,1.30
2024-01-03T18:15:43.942Z,1.90
2024-01-03T18:18:14.106Z,1.63
2024-01-03T18:20:44.413Z,1.58
2024-01-03T18:23:20.054Z,1.40
2024-01-03T18:25:54.084Z,1.35
2024-01-03T18:28:24.388Z,1.40
2024-01-03T18:31:32.363Z,1.90
2024-01-03T18:34:05.242Z,1.67
2024-01-03T18:42:22.696Z,2.20
2024-01-03T18:44:56.293Z,2.83
2024-01-03T18:47:37.345Z,2.88
2024-01-03T18:50:18.709Z,2.67
2024-01-03T18:52:55.168Z,2.95
2024-01-03T18:55:27.684Z,2.80
2024-01-03T18:57:59.782Z,2.83
2024-01-03T19:00:30.227Z,2.47
2024-01-03T19:03:04.119Z,2.58
2024-01-03T19:05:42.956Z,3.53
2024-01-03T19:08:13.166Z,2.95
2024-01-03T19:10:44.101Z,4.15
2024-01-03T19:13:12.895Z,3.55
2024-01-03T19:15:42.617Z,3.38
2024-01-03T19:18:13.434Z,2.88
2024-01-03T19:20:44.421Z,3.30
2024-01-03T19:23:14.733Z,3.40
2024-01-03T19:25:44.835Z,2.72
2024-01-03T19:28:15.609Z,3.75
2024-01-03T19:30:46.212Z,3.00
2024-01-03T19:33:18.778Z,3.05
2024-01-03T19:35:49.309Z,3.72
2024-01-03T19:38:23.456Z,3.03
2024-01-03T19:40:59.884Z,2.83
2024-01-03T19:43:43.798Z,3.13
2024-01-03T19:46:18.947Z,3.75
2024-01-03T19:48:50.997Z,3.03
2024-01-03T19:51:24.364Z,2.90
2024-01-03T19:53:56.654Z,3.38
2024-01-03T19:56:26.433Z,2.33
2024-01-03T19:58:55.354Z,3.00
2024-01-03T20:01:24.448Z,3.10
2024-01-03T20:03:53.885Z,3.05
2024-01-03T20:06:25.192Z,2.90
2024-01-03T20:08:54.619Z,2.78
2024-01-03T20:11:23.911Z,2.60
2024-01-03T20:13:55.348Z,2.05
2024-01-03T20:16:24.285Z,2.75
2024-01-03T20:21:55.699Z,1.60
2024-01-03T20:24:50.364Z,1.38
2024-01-03T20:51:35.707Z,1.63
2024-01-03T20:59:04.025Z,1.85
2024-01-03T21:01:49.767Z,1.92
2024-01-03T21:04:40.661Z,1.75
2024-01-03T21:08:36.545Z,1.85
2024-01-03T21:24:03.658Z,1.90
2024-01-03T21:41:38.611Z,1.48
2024-01-03T21:44:39.506Z,2.58
2024-01-03T21:52:20.064Z,1.80
2024-01-03T22:08:06.249Z,2.17
2024-01-03T22:15:16.618Z,2.08
2024-01-03T22:23:17.189Z,1.58
2024-01-03T22:26:20.588Z,1.85
